createdAt,value
2019-06-23T00:01:55.042Z,99.90
2019-06-23T00:04:23.208Z,99.90
2019-06-23T00:06:52.457Z,99.90
2019-06-23T00:09:20.500Z,99.90
2019-06-23T00:11:48.556Z,99.90
2019-06-23T00:14:16.659Z,99.90
2019-06-23T00:16:44.889Z,99.90
2019-06-23T00:19:13.138Z,99.90
2019-06-23T00:21:41.410Z,99.90
2019-06-23T00:24:09.726Z,99.90
2019-06-23T00:26:37.895Z,99.90
2019-06-23T00:29:06.120Z,99.90
2019-06-23T00:31:42.006Z,99.90
2019-06-23T00:34:10.249Z,99.90
2019-06-23T00:36:38.589Z,99.90
2019-06-23T00:39:08.047Z,99.90
2019-06-23T00:41:36.831Z,99.80
2019-06-23T00:44:05.357Z,99.80
2019-06-23T00:46:33.635Z,99.90
2019-06-23T00:49:02.043Z,99.90
2019-06-23T00:51:30.276Z,99.60
2019-06-23T00:53:58.491Z,99.40
2019-06-23T00:56:26.796Z,99.20
2019-06-23T00:58:55.092Z,99.20
2019-06-23T01:01:57.930Z,98.80
2019-06-23T01:04:26.568Z,98.60
2019-06-23T01:06:54.760Z,98.20
2019-06-23T01:09:22.965Z,98.00
2019-06-23T01:11:54.210Z,97.80
2019-06-23T01:14:23.365Z,97.80
2019-06-23T01:16:52.397Z,97.60
2019-06-23T01:19:20.703Z,97.70
2019-06-23T01:21:48.924Z,97.60
2019-06-23T01:24:17.227Z,97.40
2019-06-23T01:26:46.511Z,97.20
2019-06-23T01:29:14.680Z,97.00
2019-06-23T01:31:42.888Z,96.90
2019-06-23T01:34:23.639Z,96.90
2019-06-23T01:36:41.176Z,97.00
2019-06-23T01:39:09.440Z,97.30
2019-06-23T01:41:37.827Z,97.60
2019-06-23T01:44:05.964Z,97.40
2019-06-23T01:46:34.268Z,97.50
2019-06-23T01:49:02.427Z,97.20
2019-06-23T01:51:30.584Z,97.30
2019-06-23T01:53:58.799Z,97.20
2019-06-23T01:56:27.053Z,97.20
2019-06-23T01:58:55.221Z,96.90
2019-06-23T02:01:23.537Z,96.90
2019-06-23T02:03:51.661Z,96.80
2019-06-23T02:06:19.859Z,96.90
2019-06-23T02:08:48.044Z,96.90
2019-06-23T02:11:16.076Z,97.00
2019-06-23T02:13:44.346Z,97.10
2019-06-23T02:16:12.577Z,97.10
2019-06-23T02:18:40.805Z,97.00
2019-06-23T02:21:09.285Z,97.10
2019-06-23T02:23:37.608Z,97.30
2019-06-23T02:26:05.924Z,97.40
2019-06-23T02:28:35.857Z,97.30
2019-06-23T02:31:04.289Z,97.60
2019-06-23T02:33:32.515Z,97.90
2019-06-23T02:36:00.682Z,98.20
2019-06-23T02:38:28.914Z,98.30
2019-06-23T02:40:57.224Z,98.30
2019-06-23T02:43:25.389Z,98.50
2019-06-23T02:45:55.952Z,98.70
2019-06-23T02:48:26.136Z,98.70
2019-06-23T02:51:19.861Z,98.90
2019-06-23T02:53:57.501Z,98.90
2019-06-23T02:56:29.818Z,98.90
2019-06-23T02:59:01.221Z,99.10
2019-06-23T03:01:29.427Z,99.10
2019-06-23T03:03:57.797Z,99.00
2019-06-23T03:06:26.069Z,99.00
2019-06-23T03:08:54.252Z,98.90
2019-06-23T03:11:22.449Z,98.90
2019-06-23T03:13:50.823Z,98.60
2019-06-23T03:16:19.072Z,98.40
2019-06-23T03:18:47.187Z,98.10
2019-06-23T03:21:15.428Z,98.00
2019-06-23T03:23:43.589Z,98.20
2019-06-23T03:26:26.866Z,98.10
2019-06-23T03:28:55.198Z,97.80
2019-06-23T03:31:24.191Z,97.70
2019-06-23T03:33:52.466Z,97.40
2019-06-23T03:36:20.641Z,97.20
2019-06-23T03:38:50.028Z,97.00
2019-06-23T03:41:18.266Z,97.00
2019-06-23T03:43:46.532Z,97.00
2019-06-23T03:46:14.910Z,97.00
2019-06-23T03:48:43.103Z,96.80
2019-06-23T03:51:11.329Z,96.70
2019-06-23T03:53:39.504Z,96.60
2019-06-23T03:56:07.608Z,96.40
2019-06-23T03:58:35.834Z,96.60
2019-06-23T04:01:04.338Z,96.60
2019-06-23T04:03:32.729Z,96.80
2019-06-23T04:06:01.183Z,97.20
2019-06-23T04:08:29.457Z,97.50
2019-06-23T04:11:16.922Z,97.70
2019-06-23T04:13:45.257Z,98.20
2019-06-23T04:16:13.437Z,98.40
2019-06-23T04:18:41.851Z,98.50
2019-06-23T04:21:09.967Z,98.50
2019-06-23T04:23:38.167Z,98.70
2019-06-23T04:26:06.463Z,98.80
2019-06-23T04:28:34.604Z,99.20
2019-06-23T04:31:03.713Z,99.50
2019-06-23T04:33:32.004Z,99.40
2019-06-23T04:36:07.635Z,99.70
2019-06-23T04:38:30.281Z,99.90
2019-06-23T04:40:58.594Z,99.90
2019-06-23T04:43:26.824Z,99.90
2019-06-23T04:45:55.002Z,99.90
2019-06-23T04:48:23.280Z,99.90
2019-06-23T04:50:51.444Z,99.90
2019-06-23T04:53:19.721Z,99.90
2019-06-23T04:55:47.952Z,99.90
2019-06-23T04:58:16.198Z,99.90
2019-06-23T05:00:44.458Z,99.90
2019-06-23T05:03:12.446Z,99.90
2019-06-23T05:05:40.699Z,99.90
2019-06-23T05:08:08.980Z,99.90
2019-06-23T05:10:37.170Z,99.90
2019-06-23T05:13:05.400Z,99.90
2019-06-23T05:15:33.632Z,99.90
2019-06-23T05:18:01.909Z,99.90
2019-06-23T05:20:30.207Z,99.90
2019-06-23T05:22:58.248Z,99.90
2019-06-23T05:25:26.425Z,99.90
2019-06-23T05:27:54.674Z,99.90
2019-06-23T05:30:23.039Z,99.90
2019-06-23T05:32:53.107Z,99.90
2019-06-23T05:35:21.227Z,99.90
2019-06-23T05:37:49.428Z,99.90
2019-06-23T05:40:18.342Z,99.90
2019-06-23T05:42:46.807Z,99.90
2019-06-23T05:45:15.057Z,99.90
2019-06-23T05:47:43.255Z,99.90
2019-06-23T05:50:15.055Z,99.90
2019-06-23T05:52:41.953Z,99.90
2019-06-23T05:55:11.060Z,99.90
2019-06-23T05:57:39.661Z,99.90
2019-06-23T06:00:08.585Z,99.90
2019-06-23T06:02:36.857Z,99.90
2019-06-23T06:05:05.355Z,99.90
2019-06-23T06:07:34.079Z,99.90
2019-06-23T06:10:02.282Z,99.90
2019-06-23T06:12:30.371Z,99.90
2019-06-23T06:14:58.557Z,99.90
2019-06-23T06:17:26.860Z,99.90
2019-06-23T06:19:54.998Z,99.90
2019-06-23T06:22:23.172Z,99.90
2019-06-23T06:24:51.396Z,99.90
2019-06-23T06:27:19.629Z,99.90
2019-06-23T06:29:47.715Z,99.90
2019-06-23T06:32:15.923Z,99.90
2019-06-23T06:34:44.197Z,99.90
2019-06-23T06:37:12.674Z,99.90
2019-06-23T06:39:40.967Z,99.90
2019-06-23T06:42:09.233Z,99.90
2019-06-23T06:44:37.586Z,99.90
2019-06-23T06:47:05.780Z,99.90
2019-06-23T06:49:34.021Z,99.90
2019-06-23T06:52:02.201Z,99.90
2019-06-23T06:54:30.166Z,99.90
2019-06-23T06:56:58.218Z,99.90
2019-06-23T06:59:26.395Z,99.90
2019-06-23T07:01:55.053Z,99.10
2019-06-23T07:04:23.668Z,98.80
2019-06-23T07:06:51.787Z,98.40
2019-06-23T07:09:19.956Z,98.60
2019-06-23T07:11:48.197Z,99.20
2019-06-23T07:14:17.304Z,98.50
2019-06-23T07:16:45.703Z,98.20
2019-06-23T07:19:13.775Z,97.50
2019-06-23T07:21:42.068Z,97.00
2019-06-23T07:24:10.333Z,96.80
2019-06-23T07:26:38.471Z,96.30
2019-06-23T07:29:06.627Z,96.20
2019-06-23T07:31:55.045Z,95.80
2019-06-23T07:34:23.304Z,95.90
2019-06-23T07:36:53.999Z,95.90
2019-06-23T07:39:22.093Z,95.50
2019-06-23T07:41:50.330Z,95.50
2019-06-23T07:44:18.509Z,95.30
2019-06-23T07:46:46.856Z,95.10
2019-06-23T07:49:15.048Z,94.90
2019-06-23T07:51:43.236Z,94.30
2019-06-23T07:54:11.455Z,93.90
2019-06-23T07:56:39.680Z,93.80
2019-06-23T07:59:07.844Z,93.30
2019-06-23T08:01:35.887Z,93.90
2019-06-23T08:04:04.136Z,94.30
2019-06-23T08:06:32.374Z,94.40
2019-06-23T08:09:00.550Z,94.20
2019-06-23T08:11:28.730Z,94.50
2019-06-23T08:13:57.022Z,94.40
2019-06-23T08:16:25.300Z,93.90
2019-06-23T08:18:53.508Z,93.80
2019-06-23T08:21:21.668Z,93.50
2019-06-23T08:23:49.826Z,93.90
2019-06-23T08:26:17.878Z,93.50
2019-06-23T08:28:46.066Z,93.60
2019-06-23T08:31:14.263Z,93.20
2019-06-23T08:33:42.477Z,93.00
2019-06-23T08:36:10.662Z,92.80
2019-06-23T08:38:38.985Z,93.40
2019-06-23T08:41:07.092Z,93.30
2019-06-23T08:43:35.287Z,93.80
2019-06-23T08:46:03.605Z,94.10
2019-06-23T08:48:31.731Z,93.90
2019-06-23T08:50:59.924Z,94.00
2019-06-23T08:53:28.127Z,94.30
2019-06-23T08:55:56.265Z,93.70
2019-06-23T08:58:24.491Z,93.30
2019-06-23T09:00:52.891Z,93.20
2019-06-23T09:03:21.008Z,92.90
2019-06-23T09:05:49.164Z,93.40
2019-06-23T09:08:31.250Z,93.20
2019-06-23T09:10:47.133Z,93.60
2019-06-23T09:13:15.329Z,93.80
2019-06-23T09:15:43.517Z,93.90
2019-06-23T09:18:11.757Z,93.10
2019-06-23T09:20:40.318Z,92.50
2019-06-23T09:23:08.540Z,93.00
2019-06-23T09:25:36.802Z,93.40
2019-06-23T09:28:05.067Z,95.20
2019-06-23T09:30:38.789Z,97.00
2019-06-23T09:33:07.196Z,96.20
2019-06-23T09:35:35.563Z,99.10
2019-06-23T09:38:04.068Z,99.40
2019-06-23T09:40:32.940Z,98.80
2019-06-23T09:43:01.228Z,99.80
2019-06-23T09:45:29.684Z,99.70
2019-06-23T09:48:00.893Z,99.90
2019-06-23T09:50:27.980Z,99.90
2019-06-23T09:52:56.570Z,99.90
2019-06-23T09:55:24.905Z,99.90
2019-06-23T09:57:53.118Z,99.90
2019-06-23T10:00:22.305Z,99.90
2019-06-23T10:02:56.436Z,99.90
2019-06-23T10:05:20.598Z,99.90
2019-06-23T10:07:48.920Z,99.90
2019-06-23T10:10:17.163Z,99.80
2019-06-23T10:12:45.211Z,99.50
2019-06-23T10:15:13.768Z,99.40
2019-06-23T10:17:41.949Z,99.10
2019-06-23T10:20:10.121Z,98.70
2019-06-23T10:22:38.339Z,98.50
2019-06-23T10:25:06.711Z,98.30
2019-06-23T10:27:34.897Z,98.00
2019-06-23T10:30:03.358Z,98.20
2019-06-23T10:32:31.491Z,98.30
2019-06-23T10:34:59.706Z,98.10
2019-06-23T10:37:27.996Z,97.90
2019-06-23T10:39:56.261Z,98.50
2019-06-23T10:42:24.461Z,98.40
2019-06-23T10:44:52.847Z,99.20
2019-06-23T10:47:21.083Z,99.50
2019-06-23T10:49:49.465Z,99.40
2019-06-23T10:52:17.635Z,99.80
2019-06-23T10:54:45.807Z,99.00
2019-06-23T10:57:14.033Z,99.10
2019-06-23T10:59:42.399Z,99.90
2019-06-23T11:02:10.571Z,99.90
2019-06-23T11:04:38.747Z,99.80
2019-06-23T11:07:07.035Z,98.90
2019-06-23T11:09:36.361Z,99.90
2019-06-23T11:12:04.691Z,99.90
2019-06-23T11:14:32.965Z,99.90
2019-06-23T11:17:01.325Z,99.90
2019-06-23T11:19:29.619Z,99.90
2019-06-23T11:21:57.985Z,99.90
2019-06-23T11:24:45.394Z,99.90
2019-06-23T11:27:13.724Z,99.90
2019-06-23T11:29:41.747Z,99.90
2019-06-23T11:32:09.948Z,99.90
2019-06-23T11:34:38.397Z,99.90
2019-06-23T11:37:06.440Z,99.90
2019-06-23T11:39:34.848Z,99.90
2019-06-23T11:42:06.692Z,99.90
2019-06-23T11:44:35.196Z,99.90
2019-06-23T11:47:03.566Z,99.90
2019-06-23T11:49:36.907Z,99.90
2019-06-23T11:52:05.164Z,99.90
2019-06-23T11:54:33.426Z,99.90
2019-06-23T11:57:01.790Z,99.90
2019-06-23T11:59:29.945Z,99.90
2019-06-23T12:01:58.264Z,99.90
2019-06-23T12:04:26.513Z,99.90
2019-06-23T12:06:54.667Z,99.90
2019-06-23T12:09:22.741Z,99.90
2019-06-23T12:11:51.137Z,99.90
2019-06-23T12:14:19.220Z,99.90
2019-06-23T12:16:47.570Z,99.90
2019-06-23T12:19:16.011Z,99.90
2019-06-23T12:21:44.215Z,99.90
2019-06-23T12:24:12.088Z,99.90
2019-06-23T12:26:40.279Z,99.90
2019-06-23T12:29:08.455Z,99.90
2019-06-23T12:31:36.596Z,99.90
2019-06-23T12:34:04.872Z,99.90
2019-06-23T12:36:33.627Z,99.90
2019-06-23T12:39:01.864Z,99.90
2019-06-23T12:41:30.167Z,99.90
2019-06-23T12:43:57.959Z,99.90
2019-06-23T12:46:26.195Z,99.90
2019-06-23T12:48:54.369Z,99.90
2019-06-23T12:51:22.616Z,99.90
2019-06-23T12:53:50.807Z,99.90
2019-06-23T12:56:19.180Z,99.90
2019-06-23T12:58:47.557Z,99.90
2019-06-23T13:01:16.073Z,99.90
2019-06-23T13:03:44.312Z,99.90
2019-06-23T13:06:12.590Z,99.90
2019-06-23T13:08:40.798Z,99.90
2019-06-23T13:11:09.166Z,99.60
2019-06-23T13:13:37.520Z,99.90
2019-06-23T13:16:05.822Z,99.50
2019-06-23T13:18:34.214Z,99.00
2019-06-23T13:21:02.557Z,99.80
2019-06-23T13:23:30.932Z,99.70
2019-06-23T13:25:59.513Z,99.90
2019-06-23T13:28:27.732Z,99.50
2019-06-23T13:30:55.939Z,99.80
2019-06-23T13:33:24.139Z,99.90
2019-06-23T13:35:52.437Z,99.90
2019-06-23T13:38:20.569Z,99.40
2019-06-23T13:40:56.328Z,99.50
2019-06-23T13:43:18.784Z,98.90
2019-06-23T13:45:47.026Z,99.60
2019-06-23T13:48:15.300Z,99.50
2019-06-23T13:50:43.626Z,98.60
2019-06-23T13:53:12.086Z,99.20
2019-06-23T13:55:40.482Z,99.00
2019-06-23T13:58:08.716Z,98.60
2019-06-23T14:00:36.900Z,98.20
2019-06-23T14:03:05.199Z,97.80
2019-06-23T14:05:33.566Z,96.70
2019-06-23T14:08:05.079Z,96.40
2019-06-23T14:10:32.046Z,98.10
2019-06-23T14:13:00.118Z,97.40
2019-06-23T14:15:28.106Z,97.80
2019-06-23T14:17:57.301Z,98.40
2019-06-23T14:20:25.489Z,97.50
2019-06-23T14:22:53.517Z,97.40
2019-06-23T14:25:22.231Z,96.90
2019-06-23T14:27:50.574Z,97.50
2019-06-23T14:30:19.295Z,96.80
2019-06-23T14:32:47.468Z,96.60
2019-06-23T14:35:15.623Z,96.40
2019-06-23T14:37:43.917Z,96.10
2019-06-23T14:40:13.219Z,95.00
2019-06-23T14:42:41.492Z,95.60
2019-06-23T14:45:10.098Z,95.40
2019-06-23T14:47:38.480Z,95.10
2019-06-23T14:50:07.880Z,95.20
2019-06-23T14:52:36.234Z,95.80
2019-06-23T14:55:04.602Z,96.60
2019-06-23T14:57:32.817Z,96.60
2019-06-23T15:00:01.096Z,97.10
2019-06-23T15:02:29.448Z,97.20
2019-06-23T15:04:57.674Z,97.80
2019-06-23T15:07:25.895Z,97.80
2019-06-23T15:09:54.166Z,98.90
2019-06-23T15:12:24.979Z,99.90
2019-06-23T15:14:52.224Z,99.90
2019-06-23T15:17:20.560Z,99.90
2019-06-23T15:19:48.809Z,99.80
2019-06-23T15:22:17.081Z,99.90
2019-06-23T15:24:45.257Z,99.90
2019-06-23T15:27:13.550Z,99.90
2019-06-23T15:29:41.768Z,99.90
2019-06-23T15:32:09.995Z,99.90
2019-06-23T15:34:38.461Z,99.90
2019-06-23T15:37:06.790Z,99.90
2019-06-23T15:39:35.051Z,99.90
2019-06-23T15:42:03.251Z,99.90
2019-06-23T15:44:31.472Z,99.90
2019-06-23T15:47:00.150Z,99.90
2019-06-23T15:49:28.452Z,99.90
2019-06-23T15:51:56.812Z,99.90
2019-06-23T15:54:25.117Z,99.90
2019-06-23T15:56:53.111Z,99.90
2019-06-23T15:59:21.223Z,99.90
2019-06-23T16:01:49.504Z,99.90
2019-06-23T16:04:17.610Z,99.90
2019-06-23T16:06:45.957Z,99.90
2019-06-23T16:09:14.288Z,99.90
2019-06-23T16:11:42.468Z,99.90
2019-06-23T16:14:10.671Z,99.90
2019-06-23T16:16:38.877Z,99.80
2019-06-23T16:19:07.227Z,99.90
2019-06-23T16:21:35.496Z,99.90
2019-06-23T16:24:03.820Z,99.90
2019-06-23T16:26:32.104Z,99.90
2019-06-23T16:29:00.341Z,99.90
2019-06-23T16:31:28.655Z,99.90
2019-06-23T16:33:56.900Z,99.90
2019-06-23T16:36:25.179Z,99.90
2019-06-23T16:38:53.435Z,99.90
2019-06-23T16:41:21.704Z,99.90
2019-06-23T16:43:49.944Z,99.90
2019-06-23T16:46:18.050Z,99.90
2019-06-23T16:48:46.564Z,99.90
2019-06-23T16:51:14.775Z,99.90
2019-06-23T16:53:43.043Z,99.90
2019-06-23T16:56:11.228Z,99.90
2019-06-23T16:58:39.435Z,99.90
2019-06-23T17:01:07.844Z,99.90
2019-06-23T17:03:36.092Z,99.90
2019-06-23T17:06:04.054Z,99.90
2019-06-23T17:08:32.367Z,99.90
2019-06-23T17:11:00.714Z,99.90
2019-06-23T17:13:29.014Z,99.90
2019-06-23T17:15:57.524Z,99.90
2019-06-23T17:18:25.945Z,99.90
2019-06-23T17:20:54.247Z,99.90
2019-06-23T17:23:22.558Z,99.90
2019-06-23T17:25:50.780Z,99.90
2019-06-23T17:28:18.894Z,99.90
2019-06-23T17:30:47.187Z,99.90
2019-06-23T17:33:15.717Z,99.90
2019-06-23T17:35:44.226Z,99.90
2019-06-23T17:38:12.503Z,99.90
2019-06-23T17:40:40.633Z,99.90
2019-06-23T17:43:08.767Z,99.90
2019-06-23T17:45:37.082Z,99.90
2019-06-23T17:48:05.562Z,99.90
2019-06-23T17:50:33.799Z,99.90
2019-06-23T17:53:02.073Z,99.90
2019-06-23T17:55:30.400Z,99.90
2019-06-23T17:57:58.549Z,99.90
2019-06-23T18:00:26.736Z,99.90
2019-06-23T18:02:55.115Z,99.90
2019-06-23T18:05:23.382Z,99.90
2019-06-23T18:07:51.536Z,99.90
2019-06-23T18:10:19.987Z,99.90
2019-06-23T18:12:48.205Z,99.90
2019-06-23T18:15:16.637Z,99.90
2019-06-23T18:17:44.872Z,99.90
2019-06-23T18:20:13.353Z,99.90
2019-06-23T18:22:41.700Z,99.90
2019-06-23T18:25:09.918Z,99.90
2019-06-23T18:27:38.084Z,99.90
2019-06-23T18:30:06.905Z,99.90
2019-06-23T18:32:35.353Z,99.90
2019-06-23T18:35:03.726Z,99.90
2019-06-23T18:37:32.104Z,99.90
2019-06-23T18:40:00.275Z,99.90
2019-06-23T18:42:28.065Z,99.90
2019-06-23T18:44:56.419Z,99.90
2019-06-23T18:47:24.634Z,99.90
2019-06-23T18:49:52.990Z,99.90
2019-06-23T18:52:21.327Z,99.90
2019-06-23T18:54:49.530Z,99.90
2019-06-23T18:57:17.623Z,99.90
2019-06-23T18:59:45.869Z,99.90
2019-06-23T19:02:14.049Z,99.90
2019-06-23T19:04:42.322Z,99.90
2019-06-23T19:07:10.639Z,99.90
2019-06-23T19:09:38.841Z,99.90
2019-06-23T19:12:07.065Z,99.90
2019-06-23T19:14:35.627Z,99.90
2019-06-23T19:17:03.934Z,99.90
2019-06-23T19:19:32.125Z,99.90
2019-06-23T19:22:00.602Z,99.90
2019-06-23T19:24:28.848Z,99.90
2019-06-23T19:26:57.313Z,99.90
2019-06-23T19:29:25.923Z,99.90
2019-06-23T19:31:54.180Z,99.90
2019-06-23T19:34:22.409Z,99.90
2019-06-23T19:36:50.675Z,99.90
2019-06-23T19:39:18.901Z,99.90
2019-06-23T19:41:47.131Z,99.90
2019-06-23T19:44:15.556Z,99.90
2019-06-23T19:46:43.866Z,99.90
2019-06-23T19:49:12.235Z,99.90
2019-06-23T19:51:40.719Z,99.90
2019-06-23T19:54:11.803Z,99.90
2019-06-23T19:56:39.092Z,99.90
2019-06-23T19:59:07.257Z,99.90
2019-06-23T20:01:35.354Z,99.90
2019-06-23T20:04:03.593Z,99.90
2019-06-23T20:06:31.767Z,99.90
2019-06-23T20:08:59.954Z,99.90
2019-06-23T20:11:28.133Z,99.90
2019-06-23T20:13:56.482Z,99.90
2019-06-23T20:16:24.777Z,99.90
2019-06-23T20:18:52.979Z,99.90
2019-06-23T20:21:21.338Z,99.90
2019-06-23T20:23:49.606Z,99.90
2019-06-23T20:26:17.612Z,99.90
2019-06-23T20:28:45.886Z,99.90
2019-06-23T20:31:13.937Z,99.90
2019-06-23T20:33:42.300Z,99.90
2019-06-23T20:36:10.677Z,99.90
2019-06-23T20:38:39.056Z,99.90
2019-06-23T20:41:07.262Z,99.90
2019-06-23T20:43:35.574Z,99.90
2019-06-23T20:46:03.658Z,99.90
2019-06-23T20:48:31.855Z,99.90
2019-06-23T20:50:59.985Z,99.90
2019-06-23T20:53:28.313Z,99.90
2019-06-23T20:55:56.576Z,99.90
2019-06-23T20:58:24.954Z,99.90
2019-06-23T21:00:53.128Z,99.90
2019-06-23T21:03:21.228Z,99.90
2019-06-23T21:05:49.655Z,99.90
2019-06-23T21:08:17.787Z,99.90
2019-06-23T21:10:46.185Z,99.90
2019-06-23T21:13:14.304Z,99.90
2019-06-23T21:15:42.578Z,99.90
2019-06-23T21:18:10.880Z,99.90
2019-06-23T21:20:39.236Z,99.90
2019-06-23T21:23:07.614Z,99.90
2019-06-23T21:25:35.893Z,99.90
2019-06-23T21:28:04.068Z,99.90
2019-06-23T21:30:32.440Z,99.90
2019-06-23T21:33:02.134Z,99.90
2019-06-23T21:35:30.567Z,99.90
2019-06-23T21:37:58.845Z,99.90
2019-06-23T21:40:27.386Z,99.90
2019-06-23T21:42:55.968Z,99.90
2019-06-23T21:45:24.376Z,99.90
2019-06-23T21:47:52.656Z,99.90
2019-06-23T21:50:21.678Z,99.90
2019-06-23T21:52:49.897Z,99.90
2019-06-23T21:55:18.098Z,99.90
2019-06-23T21:57:46.370Z,99.90
2019-06-23T22:00:27.449Z,99.90
2019-06-23T22:02:55.999Z,99.90
2019-06-23T22:05:25.267Z,99.90
2019-06-23T22:07:53.644Z,99.90
2019-06-23T22:10:21.899Z,99.90
2019-06-23T22:12:51.782Z,99.90
2019-06-23T22:15:30.928Z,99.90
2019-06-23T22:17:50.397Z,99.90
2019-06-23T22:20:18.599Z,99.90
2019-06-23T22:22:46.775Z,99.90
2019-06-23T22:25:15.075Z,99.90
2019-06-23T22:27:43.263Z,99.90
2019-06-23T22:30:11.821Z,99.90
2019-06-23T22:32:40.088Z,99.90
2019-06-23T22:35:08.175Z,99.90
2019-06-23T22:37:36.379Z,99.90
2019-06-23T22:40:05.060Z,99.90
2019-06-23T22:42:33.399Z,99.90
2019-06-23T22:45:01.711Z,99.90
2019-06-23T22:47:30.008Z,99.90
2019-06-23T22:49:58.243Z,99.90
2019-06-23T22:52:26.406Z,99.90
2019-06-23T22:54:54.623Z,99.90
2019-06-23T22:57:22.859Z,99.90
2019-06-23T22:59:51.123Z,99.90
2019-06-23T23:02:19.548Z,99.90
2019-06-23T23:04:47.713Z,99.90
2019-06-23T23:07:15.989Z,99.90
2019-06-23T23:09:44.262Z,99.90
2019-06-23T23:12:12.612Z,99.90
2019-06-23T23:14:40.783Z,99.90
2019-06-23T23:17:09.012Z,99.90
2019-06-23T23:19:37.328Z,99.90
2019-06-23T23:22:05.494Z,99.90
2019-06-23T23:24:33.711Z,99.90
2019-06-23T23:27:01.850Z,99.90
2019-06-23T23:29:30.022Z,99.90
2019-06-23T23:31:58.232Z,99.90
2019-06-23T23:34:26.361Z,99.90
2019-06-23T23:36:54.270Z,99.90
2019-06-23T23:39:22.431Z,99.90
2019-06-23T23:41:50.670Z,99.90
2019-06-23T23:44:18.753Z,99.90
2019-06-23T23:46:47.143Z,99.90
2019-06-23T23:49:15.479Z,99.90
2019-06-23T23:51:43.702Z,99.90
2019-06-23T23:54:11.935Z,99.90
2019-06-23T23:56:40.118Z,99.90
2019-06-23T23:59:08.301Z,99.90
